createdAt,value
2022-10-29T00:03:27.288Z,12.50
2022-10-29T00:08:31.257Z,12.40
2022-10-29T00:13:33.745Z,12.50
2022-10-29T00:18:35.811Z,12.50
2022-10-29T00:23:37.717Z,12.40
2022-10-29T00:28:40.065Z,12.50
2022-10-29T00:33:42.929Z,12.40
2022-10-29T00:38:45.423Z,12.40
2022-10-29T00:43:49.685Z,12.40
2022-10-29T00:48:52.867Z,12.40
2022-10-29T00:54:02.281Z,12.40
2022-10-29T00:59:05.183Z,12.40
2022-10-29T01:04:07.742Z,12.40
2022-10-29T01:09:09.794Z,12.30
2022-10-29T01:14:30.313Z,12.30
2022-10-29T01:19:53.061Z,12.40
2022-10-29T01:25:41.199Z,12.40
2022-10-29T01:31:05.449Z,12.30
2022-10-29T01:36:58.771Z,12.40
2022-10-29T01:42:12.987Z,12.40
2022-10-29T01:47:18.788Z,12.40
2022-10-29T01:52:22.347Z,12.40
2022-10-29T01:57:38.275Z,12.40
2022-10-29T02:02:48.351Z,12.40
2022-10-29T02:07:59.768Z,12.30
2022-10-29T02:13:01.889Z,12.30
2022-10-29T02:18:06.132Z,12.30
2022-10-29T02:23:07.988Z,12.30
2022-10-29T02:28:09.967Z,12.30
2022-10-29T02:33:12.105Z,12.30
2022-10-29T02:38:13.950Z,12.30
2022-10-29T02:43:15.813Z,12.30
2022-10-29T02:48:17.729Z,12.30
2022-10-29T02:53:19.567Z,12.30
2022-10-29T03:03:28.418Z,12.40
2022-10-29T03:08:30.251Z,12.40
2022-10-29T03:13:32.576Z,12.40
2022-10-29T03:18:34.441Z,12.40
2022-10-29T03:23:36.438Z,12.40
2022-10-29T03:28:38.331Z,12.40
2022-10-29T03:33:40.249Z,12.40
2022-10-29T03:38:42.059Z,12.40
2022-10-29T03:43:43.971Z,12.50
2022-10-29T03:48:49.365Z,12.50
2022-10-29T03:53:51.406Z,12.50
2022-10-29T03:58:53.231Z,12.50
2022-10-29T04:03:55.076Z,12.50
2022-10-29T04:08:56.908Z,12.50
2022-10-29T04:13:58.899Z,12.50
2022-10-29T04:19:00.863Z,12.50
2022-10-29T04:29:24.919Z,12.60
2022-10-29T04:34:26.795Z,12.60
2022-10-29T04:39:28.618Z,12.50
2022-10-29T04:44:30.469Z,12.50
2022-10-29T04:49:32.508Z,12.50
2022-10-29T04:54:34.512Z,12.50
2022-10-29T04:59:36.336Z,12.50
2022-10-29T05:04:38.479Z,12.40
2022-10-29T05:09:40.298Z,12.40
2022-10-29T05:14:42.150Z,12.50
2022-10-29T05:19:43.975Z,12.40
2022-10-29T05:24:45.844Z,12.40
2022-10-29T05:29:47.698Z,12.50
2022-10-29T05:34:49.588Z,12.40
2022-10-29T05:39:51.726Z,12.40
2022-10-29T05:44:53.607Z,12.40
2022-10-29T05:49:55.454Z,12.40
2022-10-29T05:54:57.426Z,12.40
2022-10-29T05:59:59.248Z,12.40
2022-10-29T06:05:01.235Z,12.40
2022-10-29T06:10:03.165Z,12.40
2022-10-29T06:15:06.195Z,12.40
2022-10-29T06:20:09.006Z,12.50
2022-10-29T06:25:11.460Z,12.50
2022-10-29T06:30:13.433Z,12.50
2022-10-29T06:35:15.571Z,12.50
2022-10-29T06:40:17.692Z,12.50
2022-10-29T06:45:19.547Z,12.50
2022-10-29T06:50:21.667Z,12.50
2022-10-29T06:55:25.067Z,12.60
2022-10-29T07:00:28.528Z,12.60
2022-10-29T07:05:30.999Z,12.60
2022-10-29T07:10:33.668Z,12.60
2022-10-29T07:15:35.539Z,12.60
2022-10-29T07:20:39.697Z,12.60
2022-10-29T07:25:41.901Z,12.60
2022-10-29T07:30:44.621Z,12.60
2022-10-29T07:35:46.472Z,12.60
2022-10-29T07:40:49.668Z,12.70
2022-10-29T07:45:51.798Z,12.70
2022-10-29T07:50:53.780Z,12.70
2022-10-29T07:55:56.267Z,12.70
2022-10-29T08:00:59.858Z,12.80
2022-10-29T08:06:01.739Z,12.80
2022-10-29T08:11:05.009Z,12.80
2022-10-29T08:16:07.567Z,12.80
2022-10-29T08:21:09.399Z,12.80
2022-10-29T08:26:11.419Z,12.80
2022-10-29T08:31:13.298Z,12.80
2022-10-29T08:36:15.848Z,12.70
2022-10-29T08:41:45.139Z,12.70
2022-10-29T08:46:54.778Z,12.70
2022-10-29T08:52:19.967Z,12.70
2022-10-29T08:57:24.386Z,12.70
2022-10-29T09:02:26.403Z,12.80
2022-10-29T09:07:29.162Z,12.80
2022-10-29T09:13:08.070Z,12.90
2022-10-29T09:18:28.088Z,12.90
2022-10-29T09:23:32.586Z,13.00
2022-10-29T09:28:42.812Z,13.00
2022-10-29T09:33:47.041Z,12.90
2022-10-29T09:38:56.472Z,13.00
2022-10-29T09:44:11.658Z,12.90
2022-10-29T09:49:33.317Z,12.90
2022-10-29T09:54:35.180Z,13.00
2022-10-29T09:59:48.055Z,12.90
2022-10-29T10:04:51.934Z,13.00
2022-10-29T10:09:57.870Z,13.10
2022-10-29T10:15:18.166Z,13.10
2022-10-29T10:20:33.456Z,13.20
2022-10-29T10:25:41.444Z,13.30
2022-10-29T10:30:43.745Z,13.40
2022-10-29T10:35:45.576Z,13.40
2022-10-29T10:40:57.762Z,13.40
2022-10-29T10:46:04.319Z,13.50
2022-10-29T10:51:20.648Z,13.60
2022-10-29T10:56:23.112Z,13.50
2022-10-29T11:01:46.239Z,13.50
2022-10-29T11:06:52.289Z,13.50
2022-10-29T11:12:04.452Z,13.50
2022-10-29T11:17:24.694Z,13.50
2022-10-29T11:22:34.200Z,13.50
2022-10-29T11:27:55.744Z,13.50
2022-10-29T11:33:10.317Z,13.60
2022-10-29T11:38:18.688Z,13.60
2022-10-29T11:43:21.574Z,13.50
2022-10-29T11:48:40.944Z,13.60
2022-10-29T11:53:51.845Z,13.60
2022-10-29T11:59:13.983Z,13.60
2022-10-29T12:04:35.204Z,13.60
2022-10-29T12:10:02.669Z,13.60
2022-10-29T12:15:26.643Z,13.60
2022-10-29T12:20:36.008Z,13.60
2022-10-29T12:25:58.865Z,13.60
2022-10-29T12:31:04.587Z,13.60
2022-10-29T12:36:31.569Z,13.50
2022-10-29T12:41:43.279Z,13.30
2022-10-29T12:46:54.698Z,13.30
2022-10-29T12:52:04.692Z,13.40
2022-10-29T12:57:12.523Z,13.30
2022-10-29T13:02:27.789Z,13.30
2022-10-29T13:07:29.763Z,13.30
2022-10-29T13:12:59.681Z,13.30
2022-10-29T13:18:49.049Z,13.30
2022-10-29T13:24:03.486Z,13.30
2022-10-29T13:29:07.378Z,13.30
2022-10-29T13:34:09.314Z,13.30
2022-10-29T13:39:18.757Z,13.20
2022-10-29T13:44:25.617Z,13.30
2022-10-29T13:49:41.075Z,13.20
2022-10-29T13:54:56.676Z,13.20
2022-10-29T14:00:03.863Z,13.10
2022-10-29T14:05:27.059Z,13.10
2022-10-29T14:10:33.052Z,13.10
2022-10-29T14:15:34.972Z,13.10
2022-10-29T14:20:36.816Z,13.10
2022-10-29T14:25:38.679Z,13.00
2022-10-29T14:30:40.679Z,13.00
2022-10-29T14:35:43.322Z,13.00
2022-10-29T14:40:46.622Z,13.00
2022-10-29T14:45:48.636Z,13.00
2022-10-29T14:50:51.465Z,12.90
2022-10-29T14:55:53.429Z,12.80
2022-10-29T15:00:55.523Z,12.80
2022-10-29T15:06:17.291Z,12.80
2022-10-29T15:11:38.945Z,12.80
2022-10-29T15:16:46.846Z,12.80
2022-10-29T15:21:49.138Z,12.80
2022-10-29T15:27:03.304Z,12.70
2022-10-29T15:32:05.577Z,12.70
2022-10-29T15:37:33.879Z,12.60
2022-10-29T15:42:36.667Z,12.60
2022-10-29T15:47:40.542Z,12.60
2022-10-29T15:52:44.136Z,12.60
2022-10-29T15:57:46.164Z,12.60
2022-10-29T16:02:48.808Z,12.50
2022-10-29T16:07:50.740Z,12.50
2022-10-29T16:12:52.631Z,12.50
2022-10-29T16:17:54.646Z,12.50
2022-10-29T16:22:56.756Z,12.50
2022-10-29T16:27:59.080Z,12.50
2022-10-29T16:33:02.198Z,12.50
2022-10-29T16:38:04.057Z,12.50
2022-10-29T16:43:07.116Z,12.50
2022-10-29T16:48:09.174Z,12.50
2022-10-29T16:53:12.169Z,12.50
2022-10-29T16:58:16.136Z,12.40
2022-10-29T17:03:19.457Z,12.40
2022-10-29T17:08:21.350Z,12.40
2022-10-29T17:13:23.317Z,12.40
2022-10-29T17:18:25.150Z,12.40
2022-10-29T17:23:27.444Z,12.40
2022-10-29T17:28:29.549Z,12.40
2022-10-29T17:33:31.383Z,12.30
2022-10-29T17:38:33.219Z,12.30
2022-10-29T17:43:35.107Z,12.30
2022-10-29T17:48:36.998Z,12.30
2022-10-29T17:53:39.268Z,12.30
2022-10-29T17:58:41.137Z,12.30
2022-10-29T18:03:43.065Z,12.20
2022-10-29T18:08:45.271Z,12.20
2022-10-29T18:13:48.453Z,12.20
2022-10-29T18:19:01.215Z,12.10
2022-10-29T18:24:03.863Z,12.10
2022-10-29T18:29:08.422Z,12.10
2022-10-29T18:34:11.150Z,12.10
2022-10-29T18:39:13.214Z,12.10
2022-10-29T18:44:16.162Z,12.00
2022-10-29T18:49:18.130Z,12.00
2022-10-29T18:54:20.087Z,12.00
2022-10-29T18:59:22.040Z,12.00
2022-10-29T19:04:23.916Z,12.10
2022-10-29T19:09:25.843Z,12.00
2022-10-29T19:14:27.818Z,12.00
2022-10-29T19:19:29.730Z,11.90
2022-10-29T19:24:31.731Z,11.80
2022-10-29T19:29:34.915Z,11.80
2022-10-29T19:39:43.995Z,11.70
2022-10-29T19:44:45.841Z,11.70
2022-10-29T19:49:48.717Z,11.60
2022-10-29T19:54:50.623Z,11.60
2022-10-29T19:59:52.455Z,11.60
2022-10-29T20:04:54.481Z,11.60
2022-10-29T20:09:56.389Z,11.60
2022-10-29T20:14:58.395Z,11.70
2022-10-29T20:20:00.232Z,11.60
2022-10-29T20:25:02.103Z,11.60
2022-10-29T20:30:05.454Z,11.60
2022-10-29T20:35:07.972Z,11.60
2022-10-29T20:40:13.448Z,11.60
2022-10-29T20:45:15.313Z,11.60
2022-10-29T20:50:17.231Z,11.60
2022-10-29T20:55:19.652Z,11.70
2022-10-29T21:00:21.675Z,11.60
2022-10-29T21:05:23.704Z,11.60
2022-10-29T21:10:25.597Z,11.50
2022-10-29T21:15:27.684Z,11.60
2022-10-29T21:20:29.586Z,11.60
2022-10-29T21:25:31.602Z,11.50
2022-10-29T21:30:33.534Z,11.50
2022-10-29T21:35:35.369Z,11.50
2022-10-29T21:40:37.390Z,11.50
2022-10-29T21:45:40.591Z,11.40
2022-10-29T21:50:42.490Z,11.40
2022-10-29T21:55:44.356Z,11.40
2022-10-29T22:00:46.236Z,11.40
2022-10-29T22:05:48.169Z,11.30
2022-10-29T22:10:50.042Z,11.40
2022-10-29T22:15:52.031Z,11.40
2022-10-29T22:21:15.211Z,11.40
2022-10-29T22:26:19.461Z,11.40
2022-10-29T22:31:23.501Z,11.40
2022-10-29T22:36:26.963Z,11.40
2022-10-29T22:41:29.915Z,11.50
2022-10-29T22:46:31.885Z,11.50
2022-10-29T22:51:34.292Z,11.50
2022-10-29T22:56:37.830Z,11.50
2022-10-29T23:01:43.987Z,11.50
2022-10-29T23:06:47.846Z,11.50
2022-10-29T23:11:49.824Z,11.50
2022-10-29T23:16:52.147Z,11.50
2022-10-29T23:21:54.052Z,11.50
2022-10-29T23:26:55.879Z,11.50
2022-10-29T23:31:57.698Z,11.50
2022-10-29T23:37:00.482Z,11.50
2022-10-29T23:42:04.216Z,11.50
2022-10-29T23:47:06.067Z,11.50
2022-10-29T23:52:07.908Z,11.50
2022-10-29T23:57:09.743Z,11.50
